Uppr Free Township, New Jersey
Current Conditions -  °F | °C
As of 4:58 PM on Tuesday 25 Nov 2014 (Local Time) from KWRI Reporting Station
Overcast Overcast  
Wind Chill: 50°   Ceiling: 19000
Heat Index: 50°   Visibility: 9mi
Dew Point: 31°   Wind: 3mph
Humidity: 47%   Direction: 260°W
Pressure: 30.03"   Gusts: NA
Location:  40.2135°N, 74.5716°W
Report Text: KWRI 252158Z AUTO 26003KT 9SM OVC190 10/M01 A3003 RMK AO2 SLP172 T01001008
Loading
Personal Weather Stations






























Interactive Weather Map New forecast layout! Learn more

10-Day Weather Forecast

Advertisements
Track Severe Weather on mobile